createdAt,value
2016-01-16T00:00:48.741Z,-0.2
2016-01-16T00:01:48.682Z,-0.2
2016-01-16T00:02:48.621Z,-0.3
2016-01-16T00:03:48.562Z,-0.2
2016-01-16T00:04:48.502Z,-0.2
2016-01-16T00:05:48.442Z,-0.3
2016-01-16T00:06:48.382Z,-0.3
2016-01-16T00:07:48.322Z,-0.3
2016-01-16T00:08:48.262Z,-0.3
2016-01-16T00:09:48.203Z,-0.3
2016-01-16T00:10:48.143Z,-0.3
2016-01-16T00:11:48.083Z,-0.3
2016-01-16T00:12:48.009Z,-0.3
2016-01-16T00:13:47.949Z,-0.3
2016-01-16T00:14:47.905Z,-0.3
2016-01-16T00:15:47.829Z,-0.3
2016-01-16T00:16:47.770Z,-0.3
2016-01-16T00:17:47.709Z,-0.2
2016-01-16T00:18:47.650Z,-0.2
2016-01-16T00:19:47.590Z,-0.2
2016-01-16T00:20:47.531Z,-0.1
2016-01-16T00:21:47.471Z,-0.1
2016-01-16T00:22:47.411Z,-0.2
2016-01-16T00:23:47.382Z,-0.3
2016-01-16T00:24:47.292Z,-0.2
2016-01-16T00:25:47.231Z,-0.2
2016-01-16T00:26:47.172Z,-0.2
2016-01-16T00:27:47.112Z,-0.2
2016-01-16T00:28:47.053Z,-0.2
2016-01-16T00:29:46.993Z,-0.2
2016-01-16T00:30:46.934Z,-0.2
2016-01-16T00:31:46.856Z,-0.2
2016-01-16T00:32:46.796Z,-0.2
2016-01-16T00:33:46.751Z,-0.2
2016-01-16T00:34:46.676Z,-0.2
2016-01-16T00:35:46.617Z,-0.2
2016-01-16T00:36:46.572Z,-0.2
2016-01-16T00:37:46.497Z,-0.2
2016-01-16T00:38:46.437Z,-0.1
2016-01-16T00:39:46.377Z,-0.2
2016-01-16T00:40:46.317Z,-0.2
2016-01-16T00:41:46.258Z,-0.2
2016-01-16T00:42:46.198Z,-0.1
2016-01-16T00:43:46.138Z,-0.1
2016-01-16T00:44:46.079Z,-0.1
2016-01-16T00:45:46.019Z,-0.1
2016-01-16T00:46:45.959Z,-0.1
2016-01-16T00:47:45.899Z,-0.1
2016-01-16T00:48:45.839Z,-0.1
2016-01-16T00:49:45.795Z,-0.1
2016-01-16T00:50:45.720Z,-0.1
2016-01-16T00:51:45.661Z,-0.1
2016-01-16T00:52:45.600Z,-0.2
2016-01-16T00:53:45.541Z,-0.2
2016-01-16T00:54:45.481Z,-0.2
2016-01-16T00:55:45.422Z,-0.2
2016-01-16T00:56:45.361Z,-0.2
2016-01-16T00:57:45.302Z,-0.3
2016-01-16T00:58:45.242Z,-0.3
2016-01-16T00:59:45.183Z,-0.3
2016-01-16T01:00:45.123Z,-0.2
2016-01-16T01:01:45.063Z,-0.2
2016-01-16T01:02:45.003Z,-0.2
2016-01-16T01:03:44.927Z,-0.2
2016-01-16T01:04:44.868Z,-0.1
2016-01-16T01:05:44.809Z,-0.2
2016-01-16T01:06:44.749Z,-0.2
2016-01-16T01:07:44.689Z,-0.2
2016-01-16T01:08:44.626Z,-0.2
2016-01-16T01:09:44.567Z,-0.1
2016-01-16T01:10:44.507Z,-0.2
2016-01-16T01:11:44.447Z,-0.1
2016-01-16T01:12:44.387Z,-0.2
2016-01-16T01:13:44.328Z,-0.2
2016-01-16T01:14:44.268Z,-0.2
2016-01-16T01:15:44.208Z,-0.2
2016-01-16T01:16:44.148Z,-0.2
2016-01-16T01:17:44.089Z,-0.2
2016-01-16T01:18:44.029Z,-0.2
2016-01-16T01:19:43.970Z,-0.1
2016-01-16T01:20:43.909Z,-0.1
2016-01-16T01:21:43.866Z,-0.1
2016-01-16T01:22:43.790Z,-0.1
2016-01-16T01:23:43.730Z,-0.1
2016-01-16T01:24:43.670Z,-0.2
2016-01-16T01:25:43.610Z,-0.1
2016-01-16T01:26:43.551Z,-0.1
2016-01-16T01:27:43.491Z,0
2016-01-16T01:28:43.431Z,0
2016-01-16T01:29:43.371Z,0
2016-01-16T01:30:43.311Z,0
2016-01-16T01:31:43.252Z,0
2016-01-16T01:32:43.191Z,0
2016-01-16T01:33:43.133Z,0.1
2016-01-16T01:34:43.072Z,0.1
2016-01-16T01:35:43.013Z,0
2016-01-16T01:36:42.953Z,0.1
2016-01-16T01:37:42.917Z,0.2
2016-01-16T01:38:42.859Z,0.1
2016-01-16T01:39:43.002Z,0
2016-01-16T01:40:42.949Z,0
2016-01-16T01:41:42.763Z,0.1
2016-01-16T01:42:42.594Z,0.1
2016-01-16T01:43:42.535Z,0.2
2016-01-16T01:44:42.474Z,0.1
2016-01-16T01:45:42.415Z,0.2
2016-01-16T01:46:42.354Z,0.2
2016-01-16T01:47:42.312Z,0.2
2016-01-16T01:48:42.236Z,0.1
2016-01-16T01:49:42.179Z,0.2
2016-01-16T01:50:42.118Z,0.2
2016-01-16T01:51:42.075Z,0.2
2016-01-16T01:52:42.015Z,0.2
2016-01-16T01:53:41.955Z,0.2
2016-01-16T01:54:41.896Z,0.2
2016-01-16T01:55:41.835Z,0.2
2016-01-16T01:56:41.776Z,0.2
2016-01-16T01:57:41.716Z,0.1
2016-01-16T01:58:41.672Z,0.1
2016-01-16T01:59:41.596Z,0.2
2016-01-16T02:00:41.536Z,0.1
2016-01-16T02:01:41.477Z,0.1
2016-01-16T02:02:41.417Z,0.2
2016-01-16T02:03:41.357Z,0.1
2016-01-16T02:04:41.298Z,0
2016-01-16T02:05:41.237Z,0.1
2016-01-16T02:06:41.169Z,0.1
2016-01-16T02:07:41.115Z,0
2016-01-16T02:08:41.045Z,0.1
2016-01-16T02:09:40.958Z,0.2
2016-01-16T02:10:40.904Z,0.1
2016-01-16T02:11:40.839Z,0.2
2016-01-16T02:12:40.777Z,0.2
2016-01-16T02:13:40.712Z,0.2
2016-01-16T02:14:40.649Z,0.1
2016-01-16T02:15:40.585Z,0.2
2016-01-16T02:16:40.524Z,0.3
2016-01-16T02:17:40.462Z,0.2
2016-01-16T02:18:40.401Z,0.3
2016-01-16T02:19:40.339Z,0.2
2016-01-16T02:20:40.279Z,0.2
2016-01-16T02:21:40.217Z,0.2
2016-01-16T02:22:40.158Z,0.2
2016-01-16T02:23:40.097Z,0.2
2016-01-16T02:24:40.038Z,0.2
2016-01-16T02:25:39.977Z,0.2
2016-01-16T02:26:39.918Z,0.2
2016-01-16T02:27:39.857Z,0.1
2016-01-16T02:28:39.798Z,0.2
2016-01-16T02:29:39.738Z,0.2
2016-01-16T02:30:39.676Z,0.2
2016-01-16T02:31:39.632Z,0.1
2016-01-16T02:32:39.556Z,0.1
2016-01-16T02:33:39.512Z,0.1
2016-01-16T02:34:39.436Z,0
2016-01-16T02:35:39.392Z,0
2016-01-16T02:36:39.317Z,0
2016-01-16T02:37:39.257Z,0
2016-01-16T02:38:39.198Z,0
2016-01-16T02:39:39.138Z,0.1
2016-01-16T02:40:39.093Z,0.1
2016-01-16T02:41:39.018Z,0.1
2016-01-16T02:42:38.974Z,0
2016-01-16T02:43:38.914Z,0
2016-01-16T02:44:38.854Z,0
2016-01-16T02:45:38.795Z,0.1
2016-01-16T02:46:38.734Z,0
2016-01-16T02:47:38.675Z,0.1
2016-01-16T02:48:38.615Z,0.1
2016-01-16T02:49:38.555Z,0.1
2016-01-16T02:50:38.495Z,0.1
2016-01-16T02:51:38.435Z,0.2
2016-01-16T02:52:38.375Z,0.1
2016-01-16T02:53:38.316Z,0.1
2016-01-16T02:54:38.256Z,0.1
2016-01-16T02:55:38.197Z,0.1
2016-01-16T02:56:38.136Z,0.1
2016-01-16T02:57:38.077Z,0.1
2016-01-16T02:58:38.017Z,0.2
2016-01-16T02:59:37.958Z,0.2
2016-01-16T03:00:37.898Z,0.2
2016-01-16T03:01:37.838Z,0.3
2016-01-16T03:02:37.778Z,0.3
2016-01-16T03:03:37.749Z,0.4
2016-01-16T03:04:37.658Z,0.4
2016-01-16T03:05:37.614Z,0.4
2016-01-16T03:06:37.554Z,0.3
2016-01-16T03:07:37.494Z,0.3
2016-01-16T03:08:37.435Z,0.3
2016-01-16T03:09:37.375Z,0.3
2016-01-16T03:10:37.316Z,0.3
2016-01-16T03:11:37.255Z,0.3
2016-01-16T03:12:37.196Z,0.3
2016-01-16T03:13:37.136Z,0.3
2016-01-16T03:14:37.091Z,0.2
2016-01-16T03:15:37.016Z,0.2
2016-01-16T03:16:36.958Z,0.2
2016-01-16T03:17:36.897Z,0.2
2016-01-16T03:18:36.837Z,0.2
2016-01-16T03:19:36.777Z,0.1
2016-01-16T03:20:36.718Z,-0.1
2016-01-16T03:21:36.658Z,0
2016-01-16T03:22:36.599Z,0
2016-01-16T03:23:36.539Z,0
2016-01-16T03:24:36.479Z,0.1
2016-01-16T03:25:36.419Z,0
2016-01-16T03:26:36.360Z,0.1
2016-01-16T03:27:36.299Z,0.1
2016-01-16T03:28:36.240Z,0
2016-01-16T03:29:36.179Z,-0.1
2016-01-16T03:30:36.120Z,-0.1
2016-01-16T03:31:36.061Z,0
2016-01-16T03:32:35.999Z,0
2016-01-16T03:33:35.938Z,0
2016-01-16T03:34:35.879Z,0.1
2016-01-16T03:35:35.819Z,0
2016-01-16T03:36:35.774Z,0
2016-01-16T03:37:35.699Z,0.1
2016-01-16T03:38:35.671Z,0.1
2016-01-16T03:39:35.580Z,0.1
2016-01-16T03:40:35.520Z,0.1
2016-01-16T03:41:35.460Z,0
2016-01-16T03:42:35.401Z,0.1
2016-01-16T03:43:35.341Z,0
2016-01-16T03:44:35.281Z,0
2016-01-16T03:45:35.221Z,0
2016-01-16T03:46:35.161Z,0
2016-01-16T03:47:35.118Z,0
2016-01-16T03:48:35.042Z,0
2016-01-16T03:49:34.982Z,0.1
2016-01-16T03:50:34.923Z,0.1
2016-01-16T03:51:34.862Z,0.1
2016-01-16T03:52:34.803Z,0.1
2016-01-16T03:53:34.743Z,0.2
2016-01-16T03:54:34.683Z,0.3
2016-01-16T03:55:34.639Z,0.3
2016-01-16T03:56:34.564Z,0.3
2016-01-16T03:57:34.520Z,0.4
2016-01-16T03:58:34.460Z,0.4
2016-01-16T03:59:34.401Z,0.4
2016-01-16T04:00:34.340Z,0.4
2016-01-16T04:01:34.281Z,0.4
2016-01-16T04:02:34.221Z,0.4
2016-01-16T04:03:34.161Z,0.4
2016-01-16T04:04:34.101Z,0.4
2016-01-16T04:05:34.041Z,0.4
2016-01-16T04:06:33.981Z,0.4
2016-01-16T04:07:33.922Z,0.4
2016-01-16T04:08:33.862Z,0.4
2016-01-16T04:09:33.803Z,0.4
2016-01-16T04:10:33.759Z,0.4
2016-01-16T04:11:33.700Z,0.3
2016-01-16T04:12:33.639Z,0.3
2016-01-16T04:13:33.577Z,0.4
2016-01-16T04:14:33.517Z,0.5
2016-01-16T04:15:33.457Z,0.5
2016-01-16T04:16:33.397Z,0.4
2016-01-16T04:17:33.338Z,0.4
2016-01-16T04:18:33.278Z,0.5
2016-01-16T04:19:33.234Z,0.5
2016-01-16T04:20:33.175Z,0.5
2016-01-16T04:21:33.099Z,0.4
2016-01-16T04:22:33.055Z,0.3
2016-01-16T04:23:32.995Z,0.3
2016-01-16T04:24:32.936Z,0.3
2016-01-16T04:25:32.875Z,0.3
2016-01-16T04:26:32.816Z,0.3
2016-01-16T04:27:32.756Z,0.4
2016-01-16T04:28:32.696Z,0.4
2016-01-16T04:29:32.636Z,0.3
2016-01-16T04:30:32.577Z,0.3
2016-01-16T04:31:32.516Z,0.4
2016-01-16T04:32:32.458Z,0.5
2016-01-16T04:33:32.414Z,0.5
2016-01-16T04:34:32.353Z,0.5
2016-01-16T04:35:32.278Z,0.6
2016-01-16T04:36:32.233Z,0.6
2016-01-16T04:37:32.174Z,0.6
2016-01-16T04:38:32.114Z,0.6
2016-01-16T04:39:32.055Z,0.6
2016-01-16T04:40:31.994Z,0.6
2016-01-16T04:41:31.935Z,0.7
2016-01-16T04:42:31.875Z,0.7
2016-01-16T04:43:31.816Z,0.7
2016-01-16T04:44:31.772Z,0.6
2016-01-16T04:45:31.697Z,0.6
2016-01-16T04:46:31.637Z,0.6
2016-01-16T04:47:31.592Z,0.6
2016-01-16T04:48:31.532Z,0.6
2016-01-16T04:49:31.472Z,0.5
2016-01-16T04:50:31.413Z,0.5
2016-01-16T04:51:31.353Z,0.5
2016-01-16T04:52:31.294Z,0.4
2016-01-16T04:53:31.231Z,0.5
2016-01-16T04:54:31.188Z,0.5
2016-01-16T04:55:31.111Z,0.5
2016-01-16T04:56:31.052Z,0.6
2016-01-16T04:57:30.991Z,0.6
2016-01-16T04:58:30.948Z,0.6
2016-01-16T04:59:30.888Z,0.5
2016-01-16T05:00:30.829Z,0.5
2016-01-16T05:01:30.768Z,0.5
2016-01-16T05:02:30.710Z,0.4
2016-01-16T05:03:30.649Z,0.4
2016-01-16T05:04:30.590Z,0.4
2016-01-16T05:05:30.529Z,0.5
2016-01-16T05:06:30.471Z,0.5
2016-01-16T05:07:30.410Z,0.6
2016-01-16T05:08:30.366Z,0.5
2016-01-16T05:09:30.291Z,0.6
2016-01-16T05:10:30.231Z,0.6
2016-01-16T05:11:30.187Z,0.6
2016-01-16T05:12:30.127Z,0.6
2016-01-16T05:13:30.068Z,0.5
2016-01-16T05:14:30.007Z,0.5
2016-01-16T05:15:29.948Z,0.4
2016-01-16T05:16:29.887Z,0.5
2016-01-16T05:17:29.828Z,0.4
2016-01-16T05:18:29.768Z,0.4
2016-01-16T05:19:29.709Z,0.5
2016-01-16T05:20:29.665Z,0.5
2016-01-16T05:21:29.589Z,0.5
2016-01-16T05:22:29.545Z,0.3
2016-01-16T05:23:29.485Z,0.1
2016-01-16T05:24:29.425Z,0
2016-01-16T05:25:29.365Z,0
2016-01-16T05:26:29.306Z,-0.1
2016-01-16T05:27:29.245Z,-0.1
2016-01-16T05:28:29.175Z,0
2016-01-16T05:29:29.120Z,0
2016-01-16T05:30:29.061Z,0.1
2016-01-16T05:31:29.000Z,0.2
2016-01-16T05:32:28.941Z,0.3
2016-01-16T05:33:28.881Z,0.3
2016-01-16T05:34:28.821Z,0.4
2016-01-16T05:35:28.761Z,0.3
2016-01-16T05:36:28.702Z,0.3
2016-01-16T05:37:28.658Z,0.3
2016-01-16T05:38:28.599Z,0.3
2016-01-16T05:39:28.538Z,0.4
2016-01-16T05:40:28.479Z,0.4
2016-01-16T05:41:28.419Z,0.4
2016-01-16T05:42:28.360Z,0.4
2016-01-16T05:43:28.299Z,0.4
2016-01-16T05:44:28.240Z,0.4
2016-01-16T05:45:28.180Z,0.4
2016-01-16T05:46:28.120Z,0.4
2016-01-16T05:47:28.060Z,0.3
2016-01-16T05:48:28.015Z,0.3
2016-01-16T05:49:27.940Z,0.3
2016-01-16T05:50:27.882Z,0.3
2016-01-16T05:51:27.821Z,0.4
2016-01-16T05:52:27.762Z,0.4
2016-01-16T05:53:27.718Z,0.4
2016-01-16T05:54:27.656Z,0.4
2016-01-16T05:55:27.597Z,0.4
2016-01-16T05:56:27.538Z,0.5
2016-01-16T05:57:27.478Z,0.6
2016-01-16T05:58:27.418Z,0.5
2016-01-16T05:59:27.359Z,0.5
2016-01-16T06:00:27.298Z,0.4
2016-01-16T06:01:27.239Z,0.4
2016-01-16T06:02:27.179Z,0.4
2016-01-16T06:03:27.119Z,0.3
2016-01-16T06:04:27.075Z,0.3
2016-01-16T06:05:27.015Z,0.4
2016-01-16T06:06:26.956Z,0.4
2016-01-16T06:07:26.895Z,0.4
2016-01-16T06:08:26.836Z,0.3
2016-01-16T06:09:26.775Z,0.3
2016-01-16T06:10:26.717Z,0.3
2016-01-16T06:11:26.656Z,0.4
2016-01-16T06:12:26.594Z,0.4
2016-01-16T06:13:26.534Z,0.4
2016-01-16T06:14:26.474Z,0.4
2016-01-16T06:15:26.414Z,0.5
2016-01-16T06:16:26.354Z,0.4
2016-01-16T06:17:26.294Z,0.4
2016-01-16T06:18:26.251Z,0.5
2016-01-16T06:19:26.191Z,0.5
2016-01-16T06:20:26.130Z,0.6
2016-01-16T06:21:26.071Z,0.6
2016-01-16T06:22:26.011Z,0.5
2016-01-16T06:23:25.952Z,0.5
2016-01-16T06:24:25.892Z,0.5
2016-01-16T06:25:25.832Z,0.4
2016-01-16T06:26:25.772Z,0.4
2016-01-16T06:27:25.728Z,0.3
2016-01-16T06:28:25.652Z,0.5
2016-01-16T06:29:25.593Z,0.5
2016-01-16T06:30:25.533Z,0.5
2016-01-16T06:31:25.489Z,0.5
2016-01-16T06:32:25.429Z,0.5
2016-01-16T06:33:25.370Z,0.6
2016-01-16T06:34:25.309Z,0.6
2016-01-16T06:35:25.250Z,0.5
2016-01-16T06:36:25.190Z,0.5
2016-01-16T06:37:25.131Z,0.6
2016-01-16T06:38:25.227Z,0.6
2016-01-16T06:39:25.026Z,0.6
2016-01-16T06:40:24.950Z,0.6
2016-01-16T06:41:24.907Z,0.5
2016-01-16T06:42:24.847Z,0.5
2016-01-16T06:43:24.818Z,0.5
2016-01-16T06:44:24.727Z,0.5
2016-01-16T06:45:24.667Z,0.5
2016-01-16T06:46:24.608Z,0.5
2016-01-16T06:47:24.547Z,0.5
2016-01-16T06:48:24.489Z,0.5
2016-01-16T06:49:24.428Z,0.5
2016-01-16T06:50:24.383Z,0.4
2016-01-16T06:51:24.324Z,0.4
2016-01-16T06:52:24.264Z,0.5
2016-01-16T06:53:24.205Z,0.5
2016-01-16T06:54:24.144Z,0.5
2016-01-16T06:55:24.086Z,0.5
2016-01-16T06:56:24.025Z,0.6
2016-01-16T06:57:23.965Z,0.6
2016-01-16T06:58:23.905Z,0.6
2016-01-16T06:59:23.861Z,0.4
2016-01-16T07:00:23.802Z,0.4
2016-01-16T07:01:23.742Z,0.4
2016-01-16T07:02:23.682Z,0.4
2016-01-16T07:03:23.622Z,0.4
2016-01-16T07:04:23.578Z,0.5
2016-01-16T07:05:23.503Z,0.5
2016-01-16T07:06:23.459Z,0.6
2016-01-16T07:07:23.383Z,0.7
2016-01-16T07:08:23.340Z,0.7
2016-01-16T07:09:23.295Z,0.7
2016-01-16T07:10:23.220Z,0.7
2016-01-16T07:11:23.160Z,0.8
2016-01-16T07:12:23.100Z,0.7
2016-01-16T07:13:23.040Z,0.7
2016-01-16T07:14:22.996Z,0.7
2016-01-16T07:15:22.921Z,0.6
2016-01-16T07:16:22.876Z,0.6
2016-01-16T07:17:22.801Z,0.6
2016-01-16T07:18:22.757Z,0.6
2016-01-16T07:19:22.697Z,0.5
2016-01-16T07:20:22.637Z,0.6
2016-01-16T07:21:22.577Z,0.6
2016-01-16T07:22:22.549Z,0.7
2016-01-16T07:23:22.458Z,0.8
2016-01-16T07:24:22.398Z,0.7
2016-01-16T07:25:22.339Z,0.6
2016-01-16T07:26:22.278Z,0.6
2016-01-16T07:27:22.234Z,0.6
2016-01-16T07:28:22.174Z,0.6
2016-01-16T07:29:22.114Z,0.6
2016-01-16T07:30:22.056Z,0.6
2016-01-16T07:31:21.995Z,0.6
2016-01-16T07:32:21.936Z,0.6
2016-01-16T07:33:21.875Z,0.6
2016-01-16T07:34:21.816Z,0.6
2016-01-16T07:35:21.772Z,0.6
2016-01-16T07:36:21.697Z,0.7
2016-01-16T07:37:21.636Z,0.7
2016-01-16T07:38:21.592Z,0.7
2016-01-16T07:39:21.532Z,0.7
2016-01-16T07:40:21.472Z,0.7
2016-01-16T07:41:21.429Z,0.7
2016-01-16T07:42:21.368Z,0.7
2016-01-16T07:43:21.309Z,0.6
2016-01-16T07:44:21.233Z,0.6
2016-01-16T07:45:21.174Z,0.6
2016-01-16T07:46:21.130Z,0.6
2016-01-16T07:47:21.070Z,0.5
2016-01-16T07:48:21.010Z,0.6
2016-01-16T07:49:20.966Z,0.5
2016-01-16T07:50:20.890Z,0.5
2016-01-16T07:51:20.831Z,0.5
2016-01-16T07:52:20.770Z,0.5
2016-01-16T07:53:20.711Z,0.5
2016-01-16T07:54:20.698Z,0.5
2016-01-16T07:55:20.607Z,0.5
2016-01-16T07:56:20.532Z,0.5
2016-01-16T07:57:20.487Z,0.5
2016-01-16T07:58:20.412Z,0.5
2016-01-16T07:59:20.352Z,0.5
2016-01-16T08:00:20.292Z,0.4
2016-01-16T08:01:20.248Z,0.5
2016-01-16T08:02:20.251Z,0.5
2016-01-16T08:03:20.145Z,0.5
2016-01-16T08:04:20.069Z,0.4
2016-01-16T08:05:20.009Z,0.4
2016-01-16T08:06:19.950Z,0.4
2016-01-16T08:07:19.889Z,0.5
2016-01-16T08:08:19.830Z,0.5
2016-01-16T08:09:19.769Z,0.5
2016-01-16T08:10:19.710Z,0.5
2016-01-16T08:11:19.650Z,0.5
2016-01-16T08:12:19.591Z,0.5
2016-01-16T08:13:19.530Z,0.5
2016-01-16T08:14:19.471Z,0.5
2016-01-16T08:15:19.410Z,0.6
2016-01-16T08:16:19.351Z,0.5
2016-01-16T08:17:19.307Z,0.6
2016-01-16T08:18:19.247Z,0.5
2016-01-16T08:19:19.187Z,0.5
2016-01-16T08:20:19.127Z,0.5
2016-01-16T08:21:19.082Z,0.5
2016-01-16T08:22:19.008Z,0.5
2016-01-16T08:23:18.948Z,0.6
2016-01-16T08:24:18.888Z,0.6
2016-01-16T08:25:18.829Z,0.6
2016-01-16T08:26:18.769Z,0.6
2016-01-16T08:27:18.709Z,0.6
2016-01-16T08:28:18.648Z,0.6
2016-01-16T08:29:18.589Z,0.6
2016-01-16T08:30:18.530Z,0.6
2016-01-16T08:31:18.468Z,0.5
2016-01-16T08:32:18.407Z,0.5
2016-01-16T08:33:18.363Z,0.5
2016-01-16T08:34:18.303Z,0.5
2016-01-16T08:35:18.243Z,0.5
2016-01-16T08:36:18.184Z,0.5
2016-01-16T08:37:18.123Z,0.5
2016-01-16T08:38:18.064Z,0.5
2016-01-16T08:39:18.004Z,0.5
2016-01-16T08:40:17.945Z,0.6
2016-01-16T08:41:17.885Z,0.6
2016-01-16T08:42:17.825Z,0.5
2016-01-16T08:43:17.765Z,0.5
2016-01-16T08:44:17.705Z,0.5
2016-01-16T08:45:17.645Z,0.5
2016-01-16T08:46:17.586Z,0.5
2016-01-16T08:47:17.527Z,0.6
2016-01-16T08:48:17.468Z,0.6
2016-01-16T08:49:17.407Z,0.6
2016-01-16T08:50:17.348Z,0.7
2016-01-16T08:51:17.303Z,0.6
2016-01-16T08:52:17.245Z,0.6
2016-01-16T08:53:17.184Z,0.7
2016-01-16T08:54:17.125Z,0.7
2016-01-16T08:55:17.064Z,0.7
2016-01-16T08:56:17.005Z,0.7
2016-01-16T08:57:16.945Z,0.7
2016-01-16T08:58:16.886Z,0.6
2016-01-16T08:59:16.826Z,0.6
2016-01-16T09:00:16.766Z,0.7
2016-01-16T09:01:16.711Z,0.7
2016-01-16T09:02:16.651Z,0.7
2016-01-16T09:03:16.591Z,0.7
2016-01-16T09:04:16.531Z,0.7
2016-01-16T09:05:16.472Z,0.7
2016-01-16T09:06:16.411Z,0.7
2016-01-16T09:07:16.352Z,0.7
2016-01-16T09:08:16.307Z,0.8
2016-01-16T09:09:16.248Z,0.7
2016-01-16T09:10:16.188Z,0.7
2016-01-16T09:11:16.129Z,0.7
2016-01-16T09:12:16.068Z,0.7
2016-01-16T09:13:16.009Z,0.7
2016-01-16T09:14:15.949Z,0.7
2016-01-16T09:15:15.889Z,0.8
2016-01-16T09:16:15.829Z,0.8
2016-01-16T09:17:15.770Z,0.8
2016-01-16T09:18:15.709Z,0.8
2016-01-16T09:19:15.650Z,0.8
2016-01-16T09:20:15.590Z,0.8
2016-01-16T09:21:15.562Z,0.8
2016-01-16T09:22:15.471Z,0.9
2016-01-16T09:23:15.411Z,0.8
2016-01-16T09:24:15.367Z,0.9
2016-01-16T09:25:15.292Z,0.9
2016-01-16T09:26:15.248Z,0.9
2016-01-16T09:27:15.187Z,0.9
2016-01-16T09:28:15.127Z,0.9
2016-01-16T09:29:15.067Z,0.9
2016-01-16T09:30:15.008Z,0.9
2016-01-16T09:31:14.964Z,0.9
2016-01-16T09:32:14.888Z,0.8
2016-01-16T09:33:14.844Z,0.9
2016-01-16T09:34:14.768Z,0.8
2016-01-16T09:35:14.708Z,0.8
2016-01-16T09:36:14.649Z,0.9
2016-01-16T09:37:14.586Z,0.9
2016-01-16T09:38:14.527Z,0.9
2016-01-16T09:39:14.467Z,0.9
2016-01-16T09:40:14.422Z,0.8
2016-01-16T09:41:14.363Z,0.8
2016-01-16T09:42:14.304Z,0.8
2016-01-16T09:43:14.260Z,0.9
2016-01-16T09:44:14.185Z,0.8
2016-01-16T09:45:14.110Z,0.7
2016-01-16T09:46:14.066Z,0.8
2016-01-16T09:47:14.006Z,0.9
2016-01-16T09:48:13.962Z,0.8
2016-01-16T09:49:13.887Z,0.9
2016-01-16T09:50:13.826Z,0.8
2016-01-16T09:51:13.767Z,0.8
2016-01-16T09:52:13.707Z,0.8
2016-01-16T09:53:13.647Z,0.9
2016-01-16T09:54:13.587Z,1
2016-01-16T09:55:13.528Z,0.9
2016-01-16T09:56:13.468Z,0.9
2016-01-16T09:57:13.408Z,0.8
2016-01-16T09:58:13.348Z,0.9
2016-01-16T09:59:13.289Z,0.9
2016-01-16T10:00:13.229Z,0.9
2016-01-16T10:01:13.169Z,0.9
2016-01-16T10:02:13.109Z,0.9
2016-01-16T10:03:13.050Z,0.9
2016-01-16T10:04:13.005Z,0.9
2016-01-16T10:05:12.945Z,0.9
2016-01-16T10:06:12.870Z,0.9
2016-01-16T10:07:12.810Z,0.9
2016-01-16T10:08:12.750Z,1
2016-01-16T10:09:12.691Z,1
2016-01-16T10:10:12.631Z,1
2016-01-16T10:11:12.571Z,1
2016-01-16T10:12:12.512Z,1
2016-01-16T10:13:12.467Z,1
2016-01-16T10:14:12.389Z,1
2016-01-16T10:15:12.330Z,1
2016-01-16T10:16:12.285Z,1
2016-01-16T10:17:12.225Z,1
2016-01-16T10:18:12.165Z,1
2016-01-16T10:19:12.105Z,1
2016-01-16T10:20:12.047Z,1
2016-01-16T10:21:11.987Z,1
2016-01-16T10:22:11.928Z,1
2016-01-16T10:23:11.868Z,1.1
2016-01-16T10:24:11.808Z,1.1
2016-01-16T10:25:11.748Z,1.1
2016-01-16T10:26:11.689Z,1.1
2016-01-16T10:27:11.629Z,1.1
2016-01-16T10:28:11.569Z,1.1
2016-01-16T10:29:11.509Z,1.1
2016-01-16T10:30:11.466Z,1.1
2016-01-16T10:31:11.390Z,1.1
2016-01-16T10:32:11.346Z,1.1
2016-01-16T10:33:11.286Z,1.2
2016-01-16T10:34:11.242Z,1.2
2016-01-16T10:35:11.166Z,1.2
2016-01-16T10:36:11.107Z,1.2
2016-01-16T10:37:11.047Z,1.2
2016-01-16T10:38:10.988Z,1.2
2016-01-16T10:39:10.928Z,1.2
2016-01-16T10:40:10.868Z,1.2
2016-01-16T10:41:10.808Z,1.2
2016-01-16T10:42:10.764Z,1.2
2016-01-16T10:43:10.689Z,1.2
2016-01-16T10:44:10.627Z,1.2
2016-01-16T10:45:10.566Z,1.2
2016-01-16T10:46:10.522Z,1.3
2016-01-16T10:47:10.446Z,1.3
2016-01-16T10:48:10.403Z,1.3
2016-01-16T10:49:10.343Z,1.2
2016-01-16T10:50:10.283Z,1.2
2016-01-16T10:51:10.224Z,1.2
2016-01-16T10:52:10.164Z,1.2
2016-01-16T10:53:10.105Z,1.2
2016-01-16T10:54:10.045Z,1.2
2016-01-16T10:55:09.985Z,1.2
2016-01-16T10:56:09.925Z,1.2
2016-01-16T10:57:09.866Z,1.3
2016-01-16T10:58:09.805Z,1.3
2016-01-16T10:59:09.747Z,1.3
2016-01-16T11:00:09.686Z,1.3
2016-01-16T11:01:09.627Z,1.3
2016-01-16T11:02:09.567Z,1.3
2016-01-16T11:03:09.507Z,1.3
2016-01-16T11:04:09.463Z,1.3
2016-01-16T11:05:09.403Z,1.3
2016-01-16T11:06:09.344Z,1.3
2016-01-16T11:07:09.284Z,1.3
2016-01-16T11:08:09.224Z,1.3
2016-01-16T11:09:09.164Z,1.3
2016-01-16T11:10:09.104Z,1.3
2016-01-16T11:11:09.045Z,1.3
2016-01-16T11:12:08.995Z,1.3
2016-01-16T11:13:08.904Z,1.3
2016-01-16T11:14:08.829Z,1.3
2016-01-16T11:15:08.770Z,1.3
2016-01-16T11:16:08.695Z,1.3
2016-01-16T11:17:08.624Z,1.3
2016-01-16T11:18:08.561Z,1.3
2016-01-16T11:19:08.497Z,1.3
2016-01-16T11:20:08.431Z,1.3
2016-01-16T11:21:08.366Z,1.3
2016-01-16T11:22:08.299Z,1.3
2016-01-16T11:23:08.238Z,1.3
2016-01-16T11:24:08.176Z,1.3
2016-01-16T11:25:08.114Z,1.3
2016-01-16T11:26:08.068Z,1.3
2016-01-16T11:27:07.991Z,1.3
2016-01-16T11:28:07.946Z,1.3
2016-01-16T11:29:07.885Z,1.4
2016-01-16T11:30:07.824Z,1.3
2016-01-16T11:31:07.765Z,1.3
2016-01-16T11:32:07.703Z,1.4
2016-01-16T11:33:07.645Z,1.4
2016-01-16T11:34:07.584Z,1.4
2016-01-16T11:35:07.541Z,1.4
2016-01-16T11:36:07.465Z,1.5
2016-01-16T11:37:07.421Z,1.4
2016-01-16T11:38:07.362Z,1.4
2016-01-16T11:39:07.301Z,1.5
2016-01-16T11:40:07.242Z,1.5
2016-01-16T11:41:07.182Z,1.5
2016-01-16T11:42:07.123Z,1.4
2016-01-16T11:43:07.062Z,1.4
2016-01-16T11:44:07.018Z,1.4
2016-01-16T11:45:06.943Z,1.4
2016-01-16T11:46:06.898Z,1.4
2016-01-16T11:47:06.839Z,1.4
2016-01-16T11:48:06.776Z,1.4
2016-01-16T11:49:06.717Z,1.4
2016-01-16T11:50:06.657Z,1.4
2016-01-16T11:51:06.598Z,1.4
2016-01-16T11:52:06.537Z,1.4
2016-01-16T11:53:06.477Z,1.5
2016-01-16T11:54:06.418Z,1.5
2016-01-16T11:55:06.373Z,1.4
2016-01-16T11:56:06.314Z,1.4
2016-01-16T11:57:06.254Z,1.4
2016-01-16T11:58:06.195Z,1.5
2016-01-16T11:59:06.134Z,1.5
2016-01-16T12:00:06.075Z,1.5
2016-01-16T12:01:06.015Z,1.5
2016-01-16T12:02:05.955Z,1.5
2016-01-16T12:03:06.099Z,1.5
2016-01-16T12:04:05.852Z,1.5
2016-01-16T12:05:05.791Z,1.5
2016-01-16T12:06:05.733Z,1.5
2016-01-16T12:07:05.672Z,1.6
2016-01-16T12:08:05.613Z,1.6
2016-01-16T12:09:05.553Z,1.6
2016-01-16T12:10:05.493Z,1.6
2016-01-16T12:11:05.433Z,1.6
2016-01-16T12:12:05.389Z,1.6
2016-01-16T12:13:05.329Z,1.6
2016-01-16T12:14:05.269Z,1.6
2016-01-16T12:15:05.209Z,1.6
2016-01-16T12:16:05.150Z,1.6
2016-01-16T12:17:05.090Z,1.6
2016-01-16T12:18:05.046Z,1.6
2016-01-16T12:19:04.985Z,1.6
2016-01-16T12:20:04.926Z,1.6
2016-01-16T12:21:04.866Z,1.6
2016-01-16T12:22:04.807Z,1.6
2016-01-16T12:23:04.746Z,1.6
2016-01-16T12:24:04.687Z,1.5
2016-01-16T12:25:04.627Z,1.6
2016-01-16T12:26:04.568Z,1.6
2016-01-16T12:27:04.523Z,1.5
2016-01-16T12:28:04.448Z,1.5
2016-01-16T12:29:04.404Z,1.6
2016-01-16T12:30:04.344Z,1.6
2016-01-16T12:31:04.284Z,1.6
2016-01-16T12:32:04.223Z,1.5
2016-01-16T12:33:04.165Z,1.6
2016-01-16T12:34:04.105Z,1.6
2016-01-16T12:35:04.045Z,1.6
2016-01-16T12:36:03.985Z,1.6
2016-01-16T12:37:03.941Z,1.5
2016-01-16T12:38:03.881Z,1.6
2016-01-16T12:39:03.806Z,1.6
2016-01-16T12:40:03.761Z,1.6
2016-01-16T12:41:03.702Z,1.6
2016-01-16T12:42:03.642Z,1.6
2016-01-16T12:43:03.582Z,1.7
2016-01-16T12:44:03.522Z,1.6
2016-01-16T12:45:03.463Z,1.6
2016-01-16T12:46:03.402Z,1.6
2016-01-16T12:47:03.343Z,1.6
2016-01-16T12:48:03.283Z,1.6
2016-01-16T12:49:03.224Z,1.6
2016-01-16T12:50:03.179Z,1.6
2016-01-16T12:51:03.119Z,1.6
2016-01-16T12:52:03.060Z,1.6
2016-01-16T12:53:03.000Z,1.6
2016-01-16T12:54:02.940Z,1.6
2016-01-16T12:55:02.880Z,1.6
2016-01-16T12:56:02.821Z,1.6
2016-01-16T12:57:02.760Z,1.6
2016-01-16T12:58:02.701Z,1.6
2016-01-16T12:59:02.641Z,1.6
2016-01-16T13:00:02.581Z,1.6
2016-01-16T13:01:02.521Z,1.6
2016-01-16T13:02:02.462Z,1.7
2016-01-16T13:03:02.399Z,1.6
2016-01-16T13:04:02.354Z,1.6
2016-01-16T13:05:02.295Z,1.7
2016-01-16T13:06:02.235Z,1.6
2016-01-16T13:07:02.175Z,1.6
2016-01-16T13:08:02.115Z,1.6
2016-01-16T13:09:02.056Z,1.6
2016-01-16T13:10:01.996Z,1.6
2016-01-16T13:11:01.936Z,1.6
2016-01-16T13:12:01.876Z,1.6
2016-01-16T13:13:01.817Z,1.6
2016-01-16T13:14:01.757Z,1.6
2016-01-16T13:15:01.713Z,1.5
2016-01-16T13:16:01.653Z,1.5
2016-01-16T13:17:01.594Z,1.5
2016-01-16T13:18:01.533Z,1.6
2016-01-16T13:19:01.474Z,1.6
2016-01-16T13:20:01.414Z,1.6
2016-01-16T13:21:01.355Z,1.5
2016-01-16T13:22:01.295Z,1.6
2016-01-16T13:23:01.234Z,1.6
2016-01-16T13:24:01.175Z,1.5
2016-01-16T13:25:01.115Z,1.5
2016-01-16T13:26:01.055Z,1.6
2016-01-16T13:27:01.010Z,1.5
2016-01-16T13:28:00.935Z,1.5
2016-01-16T13:29:00.876Z,1.5
2016-01-16T13:30:00.832Z,1.5
2016-01-16T13:31:00.771Z,1.4
2016-01-16T13:32:00.712Z,1.4
2016-01-16T13:33:00.652Z,1.5
2016-01-16T13:34:00.593Z,1.5
2016-01-16T13:35:00.532Z,1.4
2016-01-16T13:36:00.473Z,1.5
2016-01-16T13:37:00.412Z,1.5
2016-01-16T13:38:00.353Z,1.5
2016-01-16T13:39:00.293Z,1.4
2016-01-16T13:40:00.234Z,1.4
2016-01-16T13:41:00.173Z,1.4
2016-01-16T13:42:00.114Z,1.4
2016-01-16T13:43:00.054Z,1.4
2016-01-16T13:43:59.994Z,1.3
2016-01-16T13:44:59.950Z,1.3
2016-01-16T13:45:59.890Z,1.4